sensor_id;sensor_type;location;lat;lon;timestamp;temperature;humidity
29413;DHT22;16389;50.126;8.450;2023-05-28T00:01:26;14.00;99.90
29413;DHT22;16389;50.126;8.450;2023-05-28T00:03:51;13.90;99.90
29413;DHT22;16389;50.126;8.450;2023-05-28T00:06:17;13.90;99.90
29413;DHT22;16389;50.126;8.450;2023-05-28T00:08:42;13.80;99.90
29413;DHT22;16389;50.126;8.450;2023-05-28T00:11:08;13.80;99.90
29413;DHT22;16389;50.126;8.450;2023-05-28T00:13:34;13.80;99.90
29413;DHT22;16389;50.126;8.450;2023-05-28T00:15:59;13.80;99.90
29413;DHT22;16389;50.126;8.450;2023-05-28T00:18:25;13.80;99.90
29413;DHT22;16389;50.126;8.450;2023-05-28T00:20:54;13.70;99.90
29413;DHT22;16389;50.126;8.450;2023-05-28T00:23:20;13.70;99.90
29413;DHT22;16389;50.126;8.450;2023-05-28T00:25:46;13.60;99.90
29413;DHT22;16389;50.126;8.450;2023-05-28T00:28:12;13.60;99.90
29413;DHT22;16389;50.126;8.450;2023-05-28T00:30:37;13.50;99.90
29413;DHT22;16389;50.126;8.450;2023-05-28T00:33:03;13.50;99.90
29413;DHT22;16389;50.126;8.450;2023-05-28T00:35:29;13.60;99.90
29413;DHT22;16389;50.126;8.450;2023-05-28T00:37:54;13.50;99.90
29413;DHT22;16389;50.126;8.450;2023-05-28T00:40:20;13.50;99.90
29413;DHT22;16389;50.126;8.450;2023-05-28T00:42:46;13.50;99.90
29413;DHT22;16389;50.126;8.450;2023-05-28T00:45:11;13.40;99.90
29413;DHT22;16389;50.126;8.450;2023-05-28T00:47:41;13.40;99.90
29413;DHT22;16389;50.126;8.450;2023-05-28T00:50:07;13.40;99.90
29413;DHT22;16389;50.126;8.450;2023-05-28T00:52:35;13.40;99.90
29413;DHT22;16389;50.126;8.450;2023-05-28T00:55:07;13.30;99.90
29413;DHT22;16389;50.126;8.450;2023-05-28T00:57:36;13.30;99.90
29413;DHT22;16389;50.126;8.450;2023-05-28T01:00:02;13.20;99.90
29413;DHT22;16389;50.126;8.450;2023-05-28T01:02:29;13.20;99.90
29413;DHT22;16389;50.126;8.450;2023-05-28T01:04:55;13.20;99.90
29413;DHT22;16389;50.126;8.450;2023-05-28T01:07:21;13.20;99.90
29413;DHT22;16389;50.126;8.450;2023-05-28T01:09:46;13.10;99.90
29413;DHT22;16389;50.126;8.450;2023-05-28T01:12:12;13.10;99.90
29413;DHT22;16389;50.126;8.450;2023-05-28T01:14:38;13.00;99.90
29413;DHT22;16389;50.126;8.450;2023-05-28T01:17:04;13.00;99.90
29413;DHT22;16389;50.126;8.450;2023-05-28T01:19:31;13.00;99.90
29413;DHT22;16389;50.126;8.450;2023-05-28T01:22:03;12.90;99.90
29413;DHT22;16389;50.126;8.450;2023-05-28T01:24:32;12.90;99.90
29413;DHT22;16389;50.126;8.450;2023-05-28T01:26:59;12.90;99.90
29413;DHT22;16389;50.126;8.450;2023-05-28T01:29:25;12.90;99.90
29413;DHT22;16389;50.126;8.450;2023-05-28T01:31:51;12.90;99.90
29413;DHT22;16389;50.126;8.450;2023-05-28T01:34:17;12.90;99.90
29413;DHT22;16389;50.126;8.450;2023-05-28T01:36:55;12.90;99.90
29413;DHT22;16389;50.126;8.450;2023-05-28T01:39:25;12.90;99.90
29413;DHT22;16389;50.126;8.450;2023-05-28T01:41:53;12.90;99.90
29413;DHT22;16389;50.126;8.450;2023-05-28T01:44:19;12.90;99.90
29413;DHT22;16389;50.126;8.450;2023-05-28T01:46:46;12.80;99.90
29413;DHT22;16389;50.126;8.450;2023-05-28T01:49:13;12.70;99.90
29413;DHT22;16389;50.126;8.450;2023-05-28T01:51:39;12.70;99.90
29413;DHT22;16389;50.126;8.450;2023-05-28T01:54:05;12.70;99.90
29413;DHT22;16389;50.126;8.450;2023-05-28T01:56:30;12.70;99.90
29413;DHT22;16389;50.126;8.450;2023-05-28T01:58:56;12.70;99.90
29413;DHT22;16389;50.126;8.450;2023-05-28T02:01:30;12.60;99.90
29413;DHT22;16389;50.126;8.450;2023-05-28T02:03:59;12.60;99.90
29413;DHT22;16389;50.126;8.450;2023-05-28T02:06:27;12.60;99.90
29413;DHT22;16389;50.126;8.450;2023-05-28T02:08:53;12.50;99.90
29413;DHT22;16389;50.126;8.450;2023-05-28T02:11:19;12.50;99.90
29413;DHT22;16389;50.126;8.450;2023-05-28T02:13:45;12.50;99.90
29413;DHT22;16389;50.126;8.450;2023-05-28T02:16:12;12.50;99.90
29413;DHT22;16389;50.126;8.450;2023-05-28T02:18:46;12.40;99.90
29413;DHT22;16389;50.126;8.450;2023-05-28T02:21:13;12.40;99.90
29413;DHT22;16389;50.126;8.450;2023-05-28T02:23:44;12.40;99.90
29413;DHT22;16389;50.126;8.450;2023-05-28T02:26:09;12.40;99.90
29413;DHT22;16389;50.126;8.450;2023-05-28T02:28:35;12.30;99.90
29413;DHT22;16389;50.126;8.450;2023-05-28T02:31:01;12.30;99.90
29413;DHT22;16389;50.126;8.450;2023-05-28T02:33:27;12.30;99.90
29413;DHT22;16389;50.126;8.450;2023-05-28T02:35:53;12.20;99.90
29413;DHT22;16389;50.126;8.450;2023-05-28T02:38:19;12.20;99.90
29413;DHT22;16389;50.126;8.450;2023-05-28T02:40:45;12.20;99.90
29413;DHT22;16389;50.126;8.450;2023-05-28T02:43:11;12.10;99.90
29413;DHT22;16389;50.126;8.450;2023-05-28T02:45:36;12.10;99.90
29413;DHT22;16389;50.126;8.450;2023-05-28T02:48:02;12.00;99.90
29413;DHT22;16389;50.126;8.450;2023-05-28T02:50:27;12.00;99.90
29413;DHT22;16389;50.126;8.450;2023-05-28T02:52:53;11.90;99.90
29413;DHT22;16389;50.126;8.450;2023-05-28T02:55:19;11.90;99.90
29413;DHT22;16389;50.126;8.450;2023-05-28T02:57:45;11.90;99.90
29413;DHT22;16389;50.126;8.450;2023-05-28T03:00:12;11.90;99.90
29413;DHT22;16389;50.126;8.450;2023-05-28T03:02:38;11.90;99.90
29413;DHT22;16389;50.126;8.450;2023-05-28T03:05:04;11.80;99.90
29413;DHT22;16389;50.126;8.450;2023-05-28T03:07:31;11.80;99.90
29413;DHT22;16389;50.126;8.450;2023-05-28T03:09:57;11.80;99.90
29413;DHT22;16389;50.126;8.450;2023-05-28T03:12:23;11.80;99.90
29413;DHT22;16389;50.126;8.450;2023-05-28T03:14:49;11.70;99.90
29413;DHT22;16389;50.126;8.450;2023-05-28T03:17:15;11.70;99.90
29413;DHT22;16389;50.126;8.450;2023-05-28T03:19:40;11.70;99.90
29413;DHT22;16389;50.126;8.450;2023-05-28T03:22:06;11.60;99.90
29413;DHT22;16389;50.126;8.450;2023-05-28T03:24:32;11.60;99.90
29413;DHT22;16389;50.126;8.450;2023-05-28T03:27:01;11.60;99.90
29413;DHT22;16389;50.126;8.450;2023-05-28T03:29:27;11.50;99.90
29413;DHT22;16389;50.126;8.450;2023-05-28T03:31:53;11.60;99.90
29413;DHT22;16389;50.126;8.450;2023-05-28T03:34:18;11.60;99.90
29413;DHT22;16389;50.126;8.450;2023-05-28T03:36:44;11.50;99.90
29413;DHT22;16389;50.126;8.450;2023-05-28T03:39:10;11.50;99.90
29413;DHT22;16389;50.126;8.450;2023-05-28T03:41:36;11.50;99.90
29413;DHT22;16389;50.126;8.450;2023-05-28T03:44:03;11.50;99.90
29413;DHT22;16389;50.126;8.450;2023-05-28T03:46:30;11.50;99.90
29413;DHT22;16389;50.126;8.450;2023-05-28T03:48:55;11.40;99.90
29413;DHT22;16389;50.126;8.450;2023-05-28T03:51:21;11.40;99.90
29413;DHT22;16389;50.126;8.450;2023-05-28T03:53:49;11.40;99.90
29413;DHT22;16389;50.126;8.450;2023-05-28T03:56:16;11.50;99.90
29413;DHT22;16389;50.126;8.450;2023-05-28T03:58:42;11.40;99.90
29413;DHT22;16389;50.126;8.450;2023-05-28T04:01:07;11.50;99.90
29413;DHT22;16389;50.126;8.450;2023-05-28T04:03:34;11.50;99.90
29413;DHT22;16389;50.126;8.450;2023-05-28T04:06:00;11.50;99.90
29413;DHT22;16389;50.126;8.450;2023-05-28T04:08:26;11.60;99.90
29413;DHT22;16389;50.126;8.450;2023-05-28T04:10:52;11.60;99.90
29413;DHT22;16389;50.126;8.450;2023-05-28T04:13:17;11.60;99.90
29413;DHT22;16389;50.126;8.450;2023-05-28T04:15:43;11.60;99.90
29413;DHT22;16389;50.126;8.450;2023-05-28T04:18:09;11.60;99.90
29413;DHT22;16389;50.126;8.450;2023-05-28T04:20:34;11.70;99.90
29413;DHT22;16389;50.126;8.450;2023-05-28T04:23:01;11.70;99.90
29413;DHT22;16389;50.126;8.450;2023-05-28T04:25:27;11.80;99.90
29413;DHT22;16389;50.126;8.450;2023-05-28T04:27:54;11.80;99.90
29413;DHT22;16389;50.126;8.450;2023-05-28T04:30:20;11.80;99.90
29413;DHT22;16389;50.126;8.450;2023-05-28T04:32:48;11.90;99.90
29413;DHT22;16389;50.126;8.450;2023-05-28T04:35:19;11.90;99.90
29413;DHT22;16389;50.126;8.450;2023-05-28T04:37:45;12.00;99.90
29413;DHT22;16389;50.126;8.450;2023-05-28T04:40:11;12.00;99.90
29413;DHT22;16389;50.126;8.450;2023-05-28T04:42:38;12.00;99.90
29413;DHT22;16389;50.126;8.450;2023-05-28T04:45:04;12.10;99.90
29413;DHT22;16389;50.126;8.450;2023-05-28T04:47:30;12.10;99.90
29413;DHT22;16389;50.126;8.450;2023-05-28T04:49:56;12.10;99.90
29413;DHT22;16389;50.126;8.450;2023-05-28T04:52:24;12.30;99.90
29413;DHT22;16389;50.126;8.450;2023-05-28T04:54:50;12.30;99.90
29413;DHT22;16389;50.126;8.450;2023-05-28T04:57:16;12.40;99.90
29413;DHT22;16389;50.126;8.450;2023-05-28T04:59:42;12.50;99.90
29413;DHT22;16389;50.126;8.450;2023-05-28T05:02:08;12.50;99.90
29413;DHT22;16389;50.126;8.450;2023-05-28T05:04:34;12.70;99.90
29413;DHT22;16389;50.126;8.450;2023-05-28T05:07:00;12.70;99.90
29413;DHT22;16389;50.126;8.450;2023-05-28T05:09:26;12.80;99.90
29413;DHT22;16389;50.126;8.450;2023-05-28T05:11:52;12.80;99.90
29413;DHT22;16389;50.126;8.450;2023-05-28T05:14:18;12.90;99.90
29413;DHT22;16389;50.126;8.450;2023-05-28T05:16:44;13.00;99.90
29413;DHT22;16389;50.126;8.450;2023-05-28T05:19:11;13.10;99.90
29413;DHT22;16389;50.126;8.450;2023-05-28T05:21:37;13.20;99.90
29413;DHT22;16389;50.126;8.450;2023-05-28T05:24:02;13.30;99.90
29413;DHT22;16389;50.126;8.450;2023-05-28T05:26:28;13.40;99.90
29413;DHT22;16389;50.126;8.450;2023-05-28T05:28:54;13.50;99.90
29413;DHT22;16389;50.126;8.450;2023-05-28T05:31:19;13.60;99.90
29413;DHT22;16389;50.126;8.450;2023-05-28T05:33:45;13.70;99.90
29413;DHT22;16389;50.126;8.450;2023-05-28T05:36:10;13.80;99.90
29413;DHT22;16389;50.126;8.450;2023-05-28T05:38:37;13.90;99.90
29413;DHT22;16389;50.126;8.450;2023-05-28T05:41:02;13.90;99.90
29413;DHT22;16389;50.126;8.450;2023-05-28T05:43:28;14.00;99.90
29413;DHT22;16389;50.126;8.450;2023-05-28T05:45:54;14.10;99.90
29413;DHT22;16389;50.126;8.450;2023-05-28T05:48:19;14.20;99.90
29413;DHT22;16389;50.126;8.450;2023-05-28T05:50:52;14.30;99.90
29413;DHT22;16389;50.126;8.450;2023-05-28T05:53:21;14.50;99.90
29413;DHT22;16389;50.126;8.450;2023-05-28T05:55:47;14.50;99.90
29413;DHT22;16389;50.126;8.450;2023-05-28T05:58:13;14.70;99.90
29413;DHT22;16389;50.126;8.450;2023-05-28T06:00:39;14.70;99.90
29413;DHT22;16389;50.126;8.450;2023-05-28T06:03:05;14.90;99.90
29413;DHT22;16389;50.126;8.450;2023-05-28T06:05:32;15.00;99.90
29413;DHT22;16389;50.126;8.450;2023-05-28T06:07:58;15.10;99.90
29413;DHT22;16389;50.126;8.450;2023-05-28T06:10:23;15.30;99.90
29413;DHT22;16389;50.126;8.450;2023-05-28T06:12:49;15.40;99.90
29413;DHT22;16389;50.126;8.450;2023-05-28T06:15:14;15.50;99.90
29413;DHT22;16389;50.126;8.450;2023-05-28T06:17:40;15.60;99.90
29413;DHT22;16389;50.126;8.450;2023-05-28T06:20:07;15.80;99.90
29413;DHT22;16389;50.126;8.450;2023-05-28T06:22:34;15.90;99.90
29413;DHT22;16389;50.126;8.450;2023-05-28T06:24:59;16.10;99.90
29413;DHT22;16389;50.126;8.450;2023-05-28T06:27:26;16.30;99.90
29413;DHT22;16389;50.126;8.450;2023-05-28T06:29:53;16.40;99.90
29413;DHT22;16389;50.126;8.450;2023-05-28T06:32:18;16.60;99.90
29413;DHT22;16389;50.126;8.450;2023-05-28T06:34:45;16.70;99.90
29413;DHT22;16389;50.126;8.450;2023-05-28T06:37:11;16.70;99.90
29413;DHT22;16389;50.126;8.450;2023-05-28T06:39:37;16.90;99.90
29413;DHT22;16389;50.126;8.450;2023-05-28T06:42:03;17.00;99.90
29413;DHT22;16389;50.126;8.450;2023-05-28T06:44:28;17.20;99.90
29413;DHT22;16389;50.126;8.450;2023-05-28T06:46:54;17.30;99.90
29413;DHT22;16389;50.126;8.450;2023-05-28T06:49:20;17.40;99.90
29413;DHT22;16389;50.126;8.450;2023-05-28T06:51:46;17.40;99.90
29413;DHT22;16389;50.126;8.450;2023-05-28T06:54:11;17.50;99.90
29413;DHT22;16389;50.126;8.450;2023-05-28T06:56:37;17.60;99.90
29413;DHT22;16389;50.126;8.450;2023-05-28T06:59:02;17.70;99.90
29413;DHT22;16389;50.126;8.450;2023-05-28T07:01:28;17.70;99.90
29413;DHT22;16389;50.126;8.450;2023-05-28T07:03:54;17.80;99.90
29413;DHT22;16389;50.126;8.450;2023-05-28T07:06:19;17.90;99.90
29413;DHT22;16389;50.126;8.450;2023-05-28T07:08:45;17.90;99.90
29413;DHT22;16389;50.126;8.450;2023-05-28T07:11:11;18.00;99.90
29413;DHT22;16389;50.126;8.450;2023-05-28T07:13:38;18.10;99.90
29413;DHT22;16389;50.126;8.450;2023-05-28T07:16:04;18.20;99.90
29413;DHT22;16389;50.126;8.450;2023-05-28T07:18:30;18.40;99.90
29413;DHT22;16389;50.126;8.450;2023-05-28T07:20:56;18.50;99.90
29413;DHT22;16389;50.126;8.450;2023-05-28T07:23:22;18.60;99.90
29413;DHT22;16389;50.126;8.450;2023-05-28T07:25:47;18.70;99.60
29413;DHT22;16389;50.126;8.450;2023-05-28T07:28:13;18.70;99.20
29413;DHT22;16389;50.126;8.450;2023-05-28T07:30:40;18.70;99.90
29413;DHT22;16389;50.126;8.450;2023-05-28T07:33:06;18.90;99.70
29413;DHT22;16389;50.126;8.450;2023-05-28T07:35:31;19.00;98.50
29413;DHT22;16389;50.126;8.450;2023-05-28T07:37:57;19.10;98.20
29413;DHT22;16389;50.126;8.450;2023-05-28T07:40:23;19.20;98.20
29413;DHT22;16389;50.126;8.450;2023-05-28T07:42:49;19.30;99.10
29413;DHT22;16389;50.126;8.450;2023-05-28T07:45:15;19.50;97.60
29413;DHT22;16389;50.126;8.450;2023-05-28T07:47:40;19.50;97.10
29413;DHT22;16389;50.126;8.450;2023-05-28T07:50:07;19.60;96.90
29413;DHT22;16389;50.126;8.450;2023-05-28T07:52:33;19.50;97.10
29413;DHT22;16389;50.126;8.450;2023-05-28T07:54:59;19.80;96.40
29413;DHT22;16389;50.126;8.450;2023-05-28T07:57:25;19.90;96.20
29413;DHT22;16389;50.126;8.450;2023-05-28T07:59:51;20.10;96.70
29413;DHT22;16389;50.126;8.450;2023-05-28T08:02:17;20.20;95.50
29413;DHT22;16389;50.126;8.450;2023-05-28T08:04:43;20.20;95.40
29413;DHT22;16389;50.126;8.450;2023-05-28T08:07:09;20.30;94.90
29413;DHT22;16389;50.126;8.450;2023-05-28T08:09:39;20.40;95.10
29413;DHT22;16389;50.126;8.450;2023-05-28T08:12:07;20.40;94.20
29413;DHT22;16389;50.126;8.450;2023-05-28T08:14:33;20.40;94.70
29413;DHT22;16389;50.126;8.450;2023-05-28T08:16:58;20.50;93.40
29413;DHT22;16389;50.126;8.450;2023-05-28T08:19:25;20.50;92.70
29413;DHT22;16389;50.126;8.450;2023-05-28T08:21:51;20.70;93.00
29413;DHT22;16389;50.126;8.450;2023-05-28T08:24:17;20.90;93.20
29413;DHT22;16389;50.126;8.450;2023-05-28T08:26:44;21.20;92.80
29413;DHT22;16389;50.126;8.450;2023-05-28T08:29:10;21.30;91.10
29413;DHT22;16389;50.126;8.450;2023-05-28T08:31:35;21.50;92.10
29413;DHT22;16389;50.126;8.450;2023-05-28T08:34:01;21.80;90.50
29413;DHT22;16389;50.126;8.450;2023-05-28T08:36:27;22.00;91.00
29413;DHT22;16389;50.126;8.450;2023-05-28T08:38:53;22.20;90.60
29413;DHT22;16389;50.126;8.450;2023-05-28T08:41:19;22.30;90.60
29413;DHT22;16389;50.126;8.450;2023-05-28T08:43:45;22.50;89.10
29413;DHT22;16389;50.126;8.450;2023-05-28T08:46:11;22.60;88.20
29413;DHT22;16389;50.126;8.450;2023-05-28T08:48:37;22.90;85.20
29413;DHT22;16389;50.126;8.450;2023-05-28T08:51:04;23.10;82.90
29413;DHT22;16389;50.126;8.450;2023-05-28T08:53:37;23.10;83.50
29413;DHT22;16389;50.126;8.450;2023-05-28T08:56:05;23.10;85.20
29413;DHT22;16389;50.126;8.450;2023-05-28T08:58:33;23.30;84.40
29413;DHT22;16389;50.126;8.450;2023-05-28T09:00:58;23.50;82.60
29413;DHT22;16389;50.126;8.450;2023-05-28T09:03:24;23.70;83.50
29413;DHT22;16389;50.126;8.450;2023-05-28T09:05:49;23.90;80.20
29413;DHT22;16389;50.126;8.450;2023-05-28T09:08:15;24.00;81.70
29413;DHT22;16389;50.126;8.450;2023-05-28T09:10:41;24.30;78.20
29413;DHT22;16389;50.126;8.450;2023-05-28T09:13:07;24.50;77.80
29413;DHT22;16389;50.126;8.450;2023-05-28T09:15:33;24.70;80.60
29413;DHT22;16389;50.126;8.450;2023-05-28T09:18:01;24.90;77.50
29413;DHT22;16389;50.126;8.450;2023-05-28T09:20:27;25.00;76.80
29413;DHT22;16389;50.126;8.450;2023-05-28T09:22:59;25.30;74.70
29413;DHT22;16389;50.126;8.450;2023-05-28T09:25:26;25.50;76.20
29413;DHT22;16389;50.126;8.450;2023-05-28T09:27:53;25.70;73.70
29413;DHT22;16389;50.126;8.450;2023-05-28T09:30:19;26.00;74.10
29413;DHT22;16389;50.126;8.450;2023-05-28T09:32:45;26.20;72.00
29413;DHT22;16389;50.126;8.450;2023-05-28T09:35:11;26.20;75.50
29413;DHT22;16389;50.126;8.450;2023-05-28T09:37:37;26.50;72.60
29413;DHT22;16389;50.126;8.450;2023-05-28T09:40:04;26.90;72.50
29413;DHT22;16389;50.126;8.450;2023-05-28T09:42:37;27.20;74.70
29413;DHT22;16389;50.126;8.450;2023-05-28T09:45:08;27.50;71.40
29413;DHT22;16389;50.126;8.450;2023-05-28T09:47:42;27.90;70.70
29413;DHT22;16389;50.126;8.450;2023-05-28T09:50:09;28.20;70.10
29413;DHT22;16389;50.126;8.450;2023-05-28T09:52:39;28.60;70.70
29413;DHT22;16389;50.126;8.450;2023-05-28T09:55:17;28.80;67.10
29413;DHT22;16389;50.126;8.450;2023-05-28T09:57:52;29.20;67.40
29413;DHT22;16389;50.126;8.450;2023-05-28T10:00:24;29.80;67.20
29413;DHT22;16389;50.126;8.450;2023-05-28T10:05:37;30.60;63.10
29413;DHT22;16389;50.126;8.450;2023-05-28T10:08:05;31.10;61.80
29413;DHT22;16389;50.126;8.450;2023-05-28T10:10:32;31.50;59.40
29413;DHT22;16389;50.126;8.450;2023-05-28T10:12:58;32.00;58.00
29413;DHT22;16389;50.126;8.450;2023-05-28T10:15:25;31.90;57.40
29413;DHT22;16389;50.126;8.450;2023-05-28T10:17:52;32.20;57.00
29413;DHT22;16389;50.126;8.450;2023-05-28T10:20:18;32.40;56.40
29413;DHT22;16389;50.126;8.450;2023-05-28T10:22:44;32.60;54.80
29413;DHT22;16389;50.126;8.450;2023-05-28T10:25:10;32.90;53.50
29413;DHT22;16389;50.126;8.450;2023-05-28T10:27:42;32.70;55.30
29413;DHT22;16389;50.126;8.450;2023-05-28T10:30:10;33.50;48.60
29413;DHT22;16389;50.126;8.450;2023-05-28T10:32:39;33.60;47.90
29413;DHT22;16389;50.126;8.450;2023-05-28T10:35:06;33.80;46.80
29413;DHT22;16389;50.126;8.450;2023-05-28T10:37:34;33.90;46.50
29413;DHT22;16389;50.126;8.450;2023-05-28T10:40:00;34.30;47.30
29413;DHT22;16389;50.126;8.450;2023-05-28T10:42:26;34.20;47.60
29413;DHT22;16389;50.126;8.450;2023-05-28T10:45:05;34.80;45.30
29413;DHT22;16389;50.126;8.450;2023-05-28T10:47:32;34.70;45.00
29413;DHT22;16389;50.126;8.450;2023-05-28T10:52:33;35.30;44.50
29413;DHT22;16389;50.126;8.450;2023-05-28T10:55:02;35.10;44.50
29413;DHT22;16389;50.126;8.450;2023-05-28T10:57:47;35.00;42.70
29413;DHT22;16389;50.126;8.450;2023-05-28T11:00:22;35.60;43.10
29413;DHT22;16389;50.126;8.450;2023-05-28T11:02:51;36.20;42.20
29413;DHT22;16389;50.126;8.450;2023-05-28T11:05:20;36.10;43.00
29413;DHT22;16389;50.126;8.450;2023-05-28T11:07:48;36.50;40.40
29413;DHT22;16389;50.126;8.450;2023-05-28T11:10:15;36.80;39.40
29413;DHT22;16389;50.126;8.450;2023-05-28T11:12:42;37.10;37.80
29413;DHT22;16389;50.126;8.450;2023-05-28T11:15:10;37.20;38.10
29413;DHT22;16389;50.126;8.450;2023-05-28T11:17:40;37.40;38.50
29413;DHT22;16389;50.126;8.450;2023-05-28T11:20:24;37.40;38.90
29413;DHT22;16389;50.126;8.450;2023-05-28T11:22:50;37.70;38.40
29413;DHT22;16389;50.126;8.450;2023-05-28T11:25:16;37.90;39.10
29413;DHT22;16389;50.126;8.450;2023-05-28T11:27:42;38.30;37.10
29413;DHT22;16389;50.126;8.450;2023-05-28T11:30:11;38.50;36.20
29413;DHT22;16389;50.126;8.450;2023-05-28T11:32:37;38.80;36.00
29413;DHT22;16389;50.126;8.450;2023-05-28T11:35:03;38.70;36.20
29413;DHT22;16389;50.126;8.450;2023-05-28T11:37:36;38.80;36.80
29413;DHT22;16389;50.126;8.450;2023-05-28T11:40:05;38.70;36.70
29413;DHT22;16389;50.126;8.450;2023-05-28T11:42:31;38.90;36.50
29413;DHT22;16389;50.126;8.450;2023-05-28T11:44:57;39.10;38.50
29413;DHT22;16389;50.126;8.450;2023-05-28T11:47:23;39.40;37.80
29413;DHT22;16389;50.126;8.450;2023-05-28T11:49:50;39.60;37.60
29413;DHT22;16389;50.126;8.450;2023-05-28T11:52:18;40.00;36.90
29413;DHT22;16389;50.126;8.450;2023-05-28T11:54:46;40.20;35.60
29413;DHT22;16389;50.126;8.450;2023-05-28T11:57:23;40.10;37.30
29413;DHT22;16389;50.126;8.450;2023-05-28T11:59:59;40.50;36.80
29413;DHT22;16389;50.126;8.450;2023-05-28T12:02:26;40.80;36.40
29413;DHT22;16389;50.126;8.450;2023-05-28T12:05:00;41.00;36.60
29413;DHT22;16389;50.126;8.450;2023-05-28T12:07:33;41.20;34.90
29413;DHT22;16389;50.126;8.450;2023-05-28T12:10:10;41.40;34.60
29413;DHT22;16389;50.126;8.450;2023-05-28T12:12:44;41.50;35.50
29413;DHT22;16389;50.126;8.450;2023-05-28T12:15:10;41.80;34.70
29413;DHT22;16389;50.126;8.450;2023-05-28T12:17:37;42.30;34.30
29413;DHT22;16389;50.126;8.450;2023-05-28T12:20:28;42.70;32.70
29413;DHT22;16389;50.126;8.450;2023-05-28T12:23:00;42.50;33.40
29413;DHT22;16389;50.126;8.450;2023-05-28T12:25:25;42.60;33.30
29413;DHT22;16389;50.126;8.450;2023-05-28T12:27:51;42.70;31.90
29413;DHT22;16389;50.126;8.450;2023-05-28T12:30:17;42.80;31.30
29413;DHT22;16389;50.126;8.450;2023-05-28T12:32:42;43.20;31.80
29413;DHT22;16389;50.126;8.450;2023-05-28T12:35:08;43.30;32.10
29413;DHT22;16389;50.126;8.450;2023-05-28T12:37:34;43.30;31.50
29413;DHT22;16389;50.126;8.450;2023-05-28T12:39:59;43.20;31.50
29413;DHT22;16389;50.126;8.450;2023-05-28T12:42:25;43.50;30.50
29413;DHT22;16389;50.126;8.450;2023-05-28T12:44:51;43.40;31.50
29413;DHT22;16389;50.126;8.450;2023-05-28T12:47:16;43.90;30.00
29413;DHT22;16389;50.126;8.450;2023-05-28T12:49:42;44.10;30.00
29413;DHT22;16389;50.126;8.450;2023-05-28T12:52:08;44.00;30.00
29413;DHT22;16389;50.126;8.450;2023-05-28T12:54:34;44.20;29.50
29413;DHT22;16389;50.126;8.450;2023-05-28T12:57:00;44.40;29.30
29413;DHT22;16389;50.126;8.450;2023-05-28T12:59:27;44.50;28.90
29413;DHT22;16389;50.126;8.450;2023-05-28T13:01:54;44.70;29.20
29413;DHT22;16389;50.126;8.450;2023-05-28T13:04:23;44.80;29.40
29413;DHT22;16389;50.126;8.450;2023-05-28T13:06:50;45.00;29.60
29413;DHT22;16389;50.126;8.450;2023-05-28T13:09:17;45.10;28.30
29413;DHT22;16389;50.126;8.450;2023-05-28T13:11:43;45.30;28.60
29413;DHT22;16389;50.126;8.450;2023-05-28T13:14:09;45.00;28.70
29413;DHT22;16389;50.126;8.450;2023-05-28T13:16:36;45.30;29.30
29413;DHT22;16389;50.126;8.450;2023-05-28T13:19:03;45.20;29.90
29413;DHT22;16389;50.126;8.450;2023-05-28T13:21:29;45.50;29.90
29413;DHT22;16389;50.126;8.450;2023-05-28T13:24:00;45.60;28.90
29413;DHT22;16389;50.126;8.450;2023-05-28T13:26:27;45.70;28.70
29413;DHT22;16389;50.126;8.450;2023-05-28T13:28:53;45.90;28.80
29413;DHT22;16389;50.126;8.450;2023-05-28T13:31:19;45.90;29.50
29413;DHT22;16389;50.126;8.450;2023-05-28T13:33:44;46.30;29.00
29413;DHT22;16389;50.126;8.450;2023-05-28T13:36:11;46.40;28.70
29413;DHT22;16389;50.126;8.450;2023-05-28T13:38:37;46.20;29.60
29413;DHT22;16389;50.126;8.450;2023-05-28T13:41:03;46.30;29.00
29413;DHT22;16389;50.126;8.450;2023-05-28T13:43:32;46.00;28.80
29413;DHT22;16389;50.126;8.450;2023-05-28T13:45:58;46.40;28.80
29413;DHT22;16389;50.126;8.450;2023-05-28T13:48:25;46.60;28.60
29413;DHT22;16389;50.126;8.450;2023-05-28T13:50:50;46.40;28.80
29413;DHT22;16389;50.126;8.450;2023-05-28T13:53:16;46.20;28.70
29413;DHT22;16389;50.126;8.450;2023-05-28T13:55:42;46.50;28.80
29413;DHT22;16389;50.126;8.450;2023-05-28T13:58:08;46.70;29.00
29413;DHT22;16389;50.126;8.450;2023-05-28T14:00:33;46.30;28.60
29413;DHT22;16389;50.126;8.450;2023-05-28T14:02:59;46.40;29.30
29413;DHT22;16389;50.126;8.450;2023-05-28T14:05:24;46.70;29.80
29413;DHT22;16389;50.126;8.450;2023-05-28T14:07:50;46.90;28.70
29413;DHT22;16389;50.126;8.450;2023-05-28T14:10:16;46.80;28.90
29413;DHT22;16389;50.126;8.450;2023-05-28T14:12:41;46.70;28.80
29413;DHT22;16389;50.126;8.450;2023-05-28T14:15:07;46.60;29.60
29413;DHT22;16389;50.126;8.450;2023-05-28T14:17:33;46.80;28.80
29413;DHT22;16389;50.126;8.450;2023-05-28T14:19:59;46.40;28.60
29413;DHT22;16389;50.126;8.450;2023-05-28T14:22:25;46.40;29.50
29413;DHT22;16389;50.126;8.450;2023-05-28T14:24:51;46.80;29.30
29413;DHT22;16389;50.126;8.450;2023-05-28T14:27:17;47.00;29.60
29413;DHT22;16389;50.126;8.450;2023-05-28T14:29:43;46.90;29.20
29413;DHT22;16389;50.126;8.450;2023-05-28T14:32:08;47.00;29.00
29413;DHT22;16389;50.126;8.450;2023-05-28T14:34:34;47.30;28.60
29413;DHT22;16389;50.126;8.450;2023-05-28T14:37:00;47.20;28.20
29413;DHT22;16389;50.126;8.450;2023-05-28T14:39:25;47.00;28.90
29413;DHT22;16389;50.126;8.450;2023-05-28T14:41:51;46.90;28.30
29413;DHT22;16389;50.126;8.450;2023-05-28T14:44:17;46.90;28.60
29413;DHT22;16389;50.126;8.450;2023-05-28T14:46:42;46.60;29.00
29413;DHT22;16389;50.126;8.450;2023-05-28T14:49:08;46.70;27.40
29413;DHT22;16389;50.126;8.450;2023-05-28T14:51:34;46.80;27.70
29413;DHT22;16389;50.126;8.450;2023-05-28T14:54:01;47.10;27.80
29413;DHT22;16389;50.126;8.450;2023-05-28T14:56:26;47.00;28.50
29413;DHT22;16389;50.126;8.450;2023-05-28T14:58:52;46.50;27.90
29413;DHT22;16389;50.126;8.450;2023-05-28T15:01:18;46.70;28.20
29413;DHT22;16389;50.126;8.450;2023-05-28T15:03:44;46.90;28.60
29413;DHT22;16389;50.126;8.450;2023-05-28T15:06:09;47.20;27.30
29413;DHT22;16389;50.126;8.450;2023-05-28T15:08:36;47.10;27.00
29413;DHT22;16389;50.126;8.450;2023-05-28T15:11:02;46.90;27.30
29413;DHT22;16389;50.126;8.450;2023-05-28T15:13:28;46.90;27.40
29413;DHT22;16389;50.126;8.450;2023-05-28T15:15:54;46.50;27.40
29413;DHT22;16389;50.126;8.450;2023-05-28T15:18:20;46.40;27.90
29413;DHT22;16389;50.126;8.450;2023-05-28T15:20:46;46.40;28.20
29413;DHT22;16389;50.126;8.450;2023-05-28T15:23:11;46.60;28.50
29413;DHT22;16389;50.126;8.450;2023-05-28T15:25:37;46.00;28.50
29413;DHT22;16389;50.126;8.450;2023-05-28T15:28:03;45.90;28.90
29413;DHT22;16389;50.126;8.450;2023-05-28T15:30:29;46.00;28.60
29413;DHT22;16389;50.126;8.450;2023-05-28T15:32:55;46.20;28.10